sensor_id;sensor_type;location;lat;lon;timestamp;pressure;altitude;pressure_sealevel;temperature;humidity
8253;BME280;61313;48.396;10.008;2024-01-15T00:01:07;95086.72;;;0.37;56.65
8253;BME280;61313;48.396;10.008;2024-01-15T00:03:33;95087.50;;;0.41;57.02
8253;BME280;61313;48.396;10.008;2024-01-15T00:05:58;95079.63;;;0.46;56.59
8253;BME280;61313;48.396;10.008;2024-01-15T00:08:23;95085.50;;;0.52;56.13
8253;BME280;61313;48.396;10.008;2024-01-15T00:10:49;95078.31;;;0.31;57.81
8253;BME280;61313;48.396;10.008;2024-01-15T00:13:14;95081.53;;;0.39;57.01
8253;BME280;61313;48.396;10.008;2024-01-15T00:15:40;95075.47;;;0.40;57.73
8253;BME280;61313;48.396;10.008;2024-01-15T00:18:05;95078.22;;;0.34;57.13
8253;BME280;61313;48.396;10.008;2024-01-15T00:20:31;95081.94;;;0.22;57.90
8253;BME280;61313;48.396;10.008;2024-01-15T00:22:56;95090.06;;;0.41;57.63
8253;BME280;61313;48.396;10.008;2024-01-15T00:25:22;95078.00;;;0.41;58.05
8253;BME280;61313;48.396;10.008;2024-01-15T00:27:48;95092.66;;;0.41;58.02
8253;BME280;61313;48.396;10.008;2024-01-15T00:30:13;95080.63;;;0.40;57.56
8253;BME280;61313;48.396;10.008;2024-01-15T00:32:38;95081.72;;;0.31;58.59
8253;BME280;61313;48.396;10.008;2024-01-15T00:35:04;95076.63;;;0.28;58.15
8253;BME280;61313;48.396;10.008;2024-01-15T00:37:30;95080.22;;;0.23;57.95
8253;BME280;61313;48.396;10.008;2024-01-15T00:39:55;95072.34;;;0.29;58.24
8253;BME280;61313;48.396;10.008;2024-01-15T00:42:20;95077.72;;;0.19;58.50
8253;BME280;61313;48.396;10.008;2024-01-15T00:44:46;95075.97;;;0.20;58.89
8253;BME280;61313;48.396;10.008;2024-01-15T00:47:11;95071.53;;;0.25;58.40
8253;BME280;61313;48.396;10.008;2024-01-15T00:49:37;95075.28;;;0.13;59.15
8253;BME280;61313;48.396;10.008;2024-01-15T00:52:02;95078.56;;;0.20;59.34
8253;BME280;61313;48.396;10.008;2024-01-15T00:54:28;95083.59;;;0.25;58.99
8253;BME280;61313;48.396;10.008;2024-01-15T00:56:53;95073.09;;;0.32;58.83
8253;BME280;61313;48.396;10.008;2024-01-15T00:59:20;95079.09;;;0.33;59.01
8253;BME280;61313;48.396;10.008;2024-01-15T01:01:45;95076.50;;;0.33;59.27
8253;BME280;61313;48.396;10.008;2024-01-15T01:04:11;95073.09;;;0.32;58.72
8253;BME280;61313;48.396;10.008;2024-01-15T01:06:36;95073.78;;;0.39;58.60
8253;BME280;61313;48.396;10.008;2024-01-15T01:09:02;95077.97;;;0.43;58.59
8253;BME280;61313;48.396;10.008;2024-01-15T01:11:27;95077.25;;;0.38;58.82
8253;BME280;61313;48.396;10.008;2024-01-15T01:13:52;95077.41;;;0.32;59.24
8253;BME280;61313;48.396;10.008;2024-01-15T01:16:18;95088.47;;;0.70;57.88
8253;BME280;61313;48.396;10.008;2024-01-15T01:18:43;95081.63;;;0.69;57.84
8253;BME280;61313;48.396;10.008;2024-01-15T01:21:09;95091.94;;;0.69;58.44
8253;BME280;61313;48.396;10.008;2024-01-15T01:23:34;95091.84;;;0.73;57.94
8253;BME280;61313;48.396;10.008;2024-01-15T01:25:59;95090.16;;;0.71;58.45
8253;BME280;61313;48.396;10.008;2024-01-15T01:28:25;95088.78;;;0.90;57.89
8253;BME280;61313;48.396;10.008;2024-01-15T01:30:50;95088.13;;;0.82;57.90
8253;BME280;61313;48.396;10.008;2024-01-15T01:33:15;95091.53;;;0.84;57.74
8253;BME280;61313;48.396;10.008;2024-01-15T01:35:41;95085.75;;;0.76;58.21
8253;BME280;61313;48.396;10.008;2024-01-15T01:38:06;95092.66;;;0.74;57.91
8253;BME280;61313;48.396;10.008;2024-01-15T01:40:31;95091.56;;;0.82;58.11
8253;BME280;61313;48.396;10.008;2024-01-15T01:42:57;95091.66;;;0.79;57.87
8253;BME280;61313;48.396;10.008;2024-01-15T01:45:22;95084.00;;;0.76;58.15
8253;BME280;61313;48.396;10.008;2024-01-15T01:47:48;95076.19;;;0.78;57.84
8253;BME280;61313;48.396;10.008;2024-01-15T01:50:14;95090.00;;;0.77;58.63
8253;BME280;61313;48.396;10.008;2024-01-15T01:52:39;95089.28;;;0.72;58.75
8253;BME280;61313;48.396;10.008;2024-01-15T01:55:06;95086.97;;;0.61;59.29
8253;BME280;61313;48.396;10.008;2024-01-15T01:57:33;95090.16;;;0.71;59.06
8253;BME280;61313;48.396;10.008;2024-01-15T02:00:01;95093.38;;;0.46;59.98
8253;BME280;61313;48.396;10.008;2024-01-15T02:02:27;95083.69;;;0.54;59.89
8253;BME280;61313;48.396;10.008;2024-01-15T02:04:52;95084.25;;;0.66;59.05
8253;BME280;61313;48.396;10.008;2024-01-15T02:07:17;95084.31;;;0.64;59.26
8253;BME280;61313;48.396;10.008;2024-01-15T02:09:44;95081.19;;;0.53;59.67
8253;BME280;61313;48.396;10.008;2024-01-15T02:12:10;95079.19;;;0.62;59.63
8253;BME280;61313;48.396;10.008;2024-01-15T02:14:36;95078.38;;;0.60;59.54
8253;BME280;61313;48.396;10.008;2024-01-15T02:17:01;95082.63;;;0.63;59.66
8253;BME280;61313;48.396;10.008;2024-01-15T02:19:27;95077.50;;;0.61;59.46
8253;BME280;61313;48.396;10.008;2024-01-15T02:21:52;95086.44;;;0.50;60.45
8253;BME280;61313;48.396;10.008;2024-01-15T02:24:17;95083.78;;;0.51;59.84
8253;BME280;61313;48.396;10.008;2024-01-15T02:26:43;95081.25;;;0.50;60.39
8253;BME280;61313;48.396;10.008;2024-01-15T02:29:10;95088.91;;;0.53;60.40
8253;BME280;61313;48.396;10.008;2024-01-15T02:31:38;95081.25;;;0.50;59.73
8253;BME280;61313;48.396;10.008;2024-01-15T02:34:04;95074.38;;;0.49;60.62
8253;BME280;61313;48.396;10.008;2024-01-15T02:36:29;95080.25;;;0.55;60.22
8253;BME280;61313;48.396;10.008;2024-01-15T02:38:54;95085.31;;;0.58;60.91
8253;BME280;61313;48.396;10.008;2024-01-15T02:41:20;95085.63;;;0.46;60.98
8253;BME280;61313;48.396;10.008;2024-01-15T02:43:45;95076.94;;;0.50;60.42
8253;BME280;61313;48.396;10.008;2024-01-15T02:46:11;95075.44;;;0.41;61.29
8253;BME280;61313;48.396;10.008;2024-01-15T02:48:36;95071.22;;;0.37;61.04
8253;BME280;61313;48.396;10.008;2024-01-15T02:51:02;95088.69;;;0.28;61.13
8253;BME280;61313;48.396;10.008;2024-01-15T02:53:28;95078.94;;;0.39;61.57
8253;BME280;61313;48.396;10.008;2024-01-15T02:55:53;95084.09;;;0.39;61.59
8253;BME280;61313;48.396;10.008;2024-01-15T02:58:19;95084.19;;;0.36;61.22
8253;BME280;61313;48.396;10.008;2024-01-15T03:00:44;95084.13;;;0.37;61.80
8253;BME280;61313;48.396;10.008;2024-01-15T03:03:09;95092.03;;;0.31;62.19
8253;BME280;61313;48.396;10.008;2024-01-15T03:05:35;95086.66;;;0.40;61.23
8253;BME280;61313;48.396;10.008;2024-01-15T03:08:00;95078.81;;;0.45;61.60
8253;BME280;61313;48.396;10.008;2024-01-15T03:10:25;95087.50;;;0.41;61.22
8253;BME280;61313;48.396;10.008;2024-01-15T03:12:51;95083.75;;;0.53;61.43
8253;BME280;61313;48.396;10.008;2024-01-15T03:15:16;95086.47;;;0.47;61.09
8253;BME280;61313;48.396;10.008;2024-01-15T03:17:43;95082.25;;;0.44;61.12
8253;BME280;61313;48.396;10.008;2024-01-15T03:20:09;95085.97;;;0.34;61.26
8253;BME280;61313;48.396;10.008;2024-01-15T03:22:34;95081.44;;;0.42;61.12
8253;BME280;61313;48.396;10.008;2024-01-15T03:25:00;95079.84;;;0.38;61.88
8253;BME280;61313;48.396;10.008;2024-01-15T03:27:25;95089.75;;;0.53;61.23
8253;BME280;61313;48.396;10.008;2024-01-15T03:29:51;95088.19;;;0.48;61.93
8253;BME280;61313;48.396;10.008;2024-01-15T03:32:17;95081.19;;;0.53;61.63
8253;BME280;61313;48.396;10.008;2024-01-15T03:34:42;95081.38;;;0.45;61.59
8253;BME280;61313;48.396;10.008;2024-01-15T03:37:07;95080.28;;;0.54;61.43
8253;BME280;61313;48.396;10.008;2024-01-15T03:39:33;95075.09;;;0.55;61.56
8253;BME280;61313;48.396;10.008;2024-01-15T03:41:58;95069.34;;;0.77;60.84
8253;BME280;61313;48.396;10.008;2024-01-15T03:44:23;95081.00;;;0.59;61.20
8253;BME280;61313;48.396;10.008;2024-01-15T03:46:49;95069.22;;;0.49;61.83
8253;BME280;61313;48.396;10.008;2024-01-15T03:49:15;95075.34;;;0.45;62.53
8253;BME280;61313;48.396;10.008;2024-01-15T03:51:40;95073.47;;;0.51;61.83
8253;BME280;61313;48.396;10.008;2024-01-15T03:54:05;95073.38;;;0.54;62.22
8253;BME280;61313;48.396;10.008;2024-01-15T03:56:31;95069.63;;;0.33;62.19
8253;BME280;61313;48.396;10.008;2024-01-15T03:58:57;95068.53;;;0.42;61.98
8253;BME280;61313;48.396;10.008;2024-01-15T04:01:22;95062.28;;;0.51;62.25
8253;BME280;61313;48.396;10.008;2024-01-15T04:03:48;95070.13;;;0.48;61.65
8253;BME280;61313;48.396;10.008;2024-01-15T04:06:13;95069.56;;;0.35;62.30
8253;BME280;61313;48.396;10.008;2024-01-15T04:08:38;95066.50;;;0.55;62.22
8253;BME280;61313;48.396;10.008;2024-01-15T04:11:04;95070.00;;;0.52;62.05
8253;BME280;61313;48.396;10.008;2024-01-15T04:13:32;95068.81;;;0.31;62.46
8253;BME280;61313;48.396;10.008;2024-01-15T04:15:57;95061.91;;;0.32;62.04
8253;BME280;61313;48.396;10.008;2024-01-15T04:18:23;95061.69;;;0.41;62.22
8253;BME280;61313;48.396;10.008;2024-01-15T04:20:48;95054.94;;;0.35;62.13
8253;BME280;61313;48.396;10.008;2024-01-15T04:23:14;95057.47;;;0.38;62.01
8253;BME280;61313;48.396;10.008;2024-01-15T04:25:39;95057.34;;;0.43;62.22
8253;BME280;61313;48.396;10.008;2024-01-15T04:28:08;95058.31;;;0.37;62.78
8253;BME280;61313;48.396;10.008;2024-01-15T04:30:34;95053.34;;;0.31;61.91
8253;BME280;61313;48.396;10.008;2024-01-15T04:32:59;95046.44;;;0.32;61.79
8253;BME280;61313;48.396;10.008;2024-01-15T04:35:24;95051.47;;;0.36;62.63
8253;BME280;61313;48.396;10.008;2024-01-15T04:37:50;95055.50;;;0.47;62.15
8253;BME280;61313;48.396;10.008;2024-01-15T04:40:15;95045.50;;;0.67;61.11
8253;BME280;61313;48.396;10.008;2024-01-15T04:42:40;95044.97;;;0.54;61.14
8253;BME280;61313;48.396;10.008;2024-01-15T04:45:06;95043.19;;;0.58;61.66
8253;BME280;61313;48.396;10.008;2024-01-15T04:47:31;95048.78;;;0.41;61.75
8253;BME280;61313;48.396;10.008;2024-01-15T04:49:57;95048.56;;;0.50;61.40
8253;BME280;61313;48.396;10.008;2024-01-15T04:52:22;95042.78;;;0.40;61.61
8253;BME280;61313;48.396;10.008;2024-01-15T04:54:48;95050.34;;;0.47;61.08
8253;BME280;61313;48.396;10.008;2024-01-15T04:57:14;95041.00;;;0.42;61.92
8253;BME280;61313;48.396;10.008;2024-01-15T04:59:40;95046.81;;;0.51;61.34
8253;BME280;61313;48.396;10.008;2024-01-15T05:02:05;95039.19;;;0.46;61.84
8253;BME280;61313;48.396;10.008;2024-01-15T05:04:31;95044.34;;;0.46;61.12
8253;BME280;61313;48.396;10.008;2024-01-15T05:06:58;95034.72;;;0.53;60.41
8253;BME280;61313;48.396;10.008;2024-01-15T05:09:23;95032.94;;;0.55;61.25
8253;BME280;61313;48.396;10.008;2024-01-15T05:11:48;95043.28;;;0.53;61.12
8253;BME280;61313;48.396;10.008;2024-01-15T05:14:14;95037.09;;;0.60;60.89
8253;BME280;61313;48.396;10.008;2024-01-15T05:16:40;95033.88;;;0.52;60.60
8253;BME280;61313;48.396;10.008;2024-01-15T05:19:07;95024.94;;;0.64;60.50
8253;BME280;61313;48.396;10.008;2024-01-15T05:21:32;95029.56;;;0.53;60.07
8253;BME280;61313;48.396;10.008;2024-01-15T05:23:58;95034.03;;;0.46;60.85
8253;BME280;61313;48.396;10.008;2024-01-15T05:26:23;95037.56;;;0.42;61.35
8253;BME280;61313;48.396;10.008;2024-01-15T05:28:48;95034.13;;;0.43;61.59
8253;BME280;61313;48.396;10.008;2024-01-15T05:31:14;95040.81;;;0.50;61.30
8253;BME280;61313;48.396;10.008;2024-01-15T05:33:39;95027.97;;;0.47;60.94
8253;BME280;61313;48.396;10.008;2024-01-15T05:36:05;95031.41;;;0.48;61.73
8253;BME280;61313;48.396;10.008;2024-01-15T05:38:31;95030.19;;;0.61;61.14
8253;BME280;61313;48.396;10.008;2024-01-15T05:40:56;95031.06;;;0.60;61.59
8253;BME280;61313;48.396;10.008;2024-01-15T05:43:22;95034.94;;;0.76;61.46
8253;BME280;61313;48.396;10.008;2024-01-15T05:45:47;95040.69;;;0.55;62.02
8253;BME280;61313;48.396;10.008;2024-01-15T05:48:12;95032.56;;;0.69;61.74
8253;BME280;61313;48.396;10.008;2024-01-15T05:50:38;95042.81;;;0.72;61.38
8253;BME280;61313;48.396;10.008;2024-01-15T05:53:04;95045.53;;;0.66;62.22
8253;BME280;61313;48.396;10.008;2024-01-15T05:55:30;95035.28;;;0.64;62.46
8253;BME280;61313;48.396;10.008;2024-01-15T05:57:55;95026.00;;;0.88;61.24
8253;BME280;61313;48.396;10.008;2024-01-15T06:00:21;95030.59;;;0.78;61.87
8253;BME280;61313;48.396;10.008;2024-01-15T06:02:46;95025.19;;;0.86;62.12
8253;BME280;61313;48.396;10.008;2024-01-15T06:05:11;95026.16;;;0.82;62.09
8253;BME280;61313;48.396;10.008;2024-01-15T06:07:37;95027.75;;;0.88;62.79
8253;BME280;61313;48.396;10.008;2024-01-15T06:10:03;95022.59;;;0.86;62.42
8253;BME280;61313;48.396;10.008;2024-01-15T06:12:30;95019.53;;;0.73;63.51
8253;BME280;61313;48.396;10.008;2024-01-15T06:14:56;95019.66;;;0.69;63.30
8253;BME280;61313;48.396;10.008;2024-01-15T06:17:21;95016.63;;;0.84;63.03
8253;BME280;61313;48.396;10.008;2024-01-15T06:19:47;95013.22;;;0.83;62.81
8253;BME280;61313;48.396;10.008;2024-01-15T06:22:12;95009.66;;;0.88;62.94
8253;BME280;61313;48.396;10.008;2024-01-15T06:24:37;95024.88;;;0.97;62.20
8253;BME280;61313;48.396;10.008;2024-01-15T06:27:03;95014.81;;;0.88;62.59
8253;BME280;61313;48.396;10.008;2024-01-15T06:29:28;95010.31;;;0.94;62.47
8253;BME280;61313;48.396;10.008;2024-01-15T06:31:53;95006.59;;;1.04;61.57
8253;BME280;61313;48.396;10.008;2024-01-15T06:34:19;95003.88;;;1.09;60.81
8253;BME280;61313;48.396;10.008;2024-01-15T06:36:44;95007.28;;;1.10;60.59
8253;BME280;61313;48.396;10.008;2024-01-15T06:39:10;94996.63;;;0.92;61.79
8253;BME280;61313;48.396;10.008;2024-01-15T06:41:35;94987.69;;;1.02;61.45
8253;BME280;61313;48.396;10.008;2024-01-15T06:44:06;94982.78;;;0.95;61.49
8253;BME280;61313;48.396;10.008;2024-01-15T06:46:32;94987.50;;;1.09;60.97
8253;BME280;61313;48.396;10.008;2024-01-15T06:48:57;94993.94;;;0.95;61.00
8253;BME280;61313;48.396;10.008;2024-01-15T06:51:22;95000.97;;;0.90;61.98
8253;BME280;61313;48.396;10.008;2024-01-15T06:53:48;95004.56;;;0.84;62.17
8253;BME280;61313;48.396;10.008;2024-01-15T06:56:13;95008.91;;;0.82;62.89
8253;BME280;61313;48.396;10.008;2024-01-15T06:58:39;95011.31;;;0.90;62.65
8253;BME280;61313;48.396;10.008;2024-01-15T07:01:04;95021.44;;;0.96;62.52
8253;BME280;61313;48.396;10.008;2024-01-15T07:03:29;95012.50;;;0.78;62.65
8253;BME280;61313;48.396;10.008;2024-01-15T07:05:55;95013.91;;;0.90;62.41
8253;BME280;61313;48.396;10.008;2024-01-15T07:08:20;95013.91;;;0.90;62.82
8253;BME280;61313;48.396;10.008;2024-01-15T07:10:46;95012.13;;;0.92;63.22
8253;BME280;61313;48.396;10.008;2024-01-15T07:13:11;95006.41;;;0.81;63.57
8253;BME280;61313;48.396;10.008;2024-01-15T07:15:36;95011.50;;;0.82;63.71
8253;BME280;61313;48.396;10.008;2024-01-15T07:18:02;95012.28;;;0.86;63.63
8253;BME280;61313;48.396;10.008;2024-01-15T07:20:27;95009.72;;;0.84;63.33
8253;BME280;61313;48.396;10.008;2024-01-15T07:22:53;95007.97;;;0.87;63.23
8253;BME280;61313;48.396;10.008;2024-01-15T07:25:18;95009.53;;;0.92;63.31
8253;BME280;61313;48.396;10.008;2024-01-15T07:27:43;95002.44;;;0.99;62.96
8253;BME280;61313;48.396;10.008;2024-01-15T07:30:11;95001.63;;;0.97;63.49
8253;BME280;61313;48.396;10.008;2024-01-15T07:32:37;94996.28;;;1.03;63.43
8253;BME280;61313;48.396;10.008;2024-01-15T07:35:03;94999.03;;;0.97;63.80
8253;BME280;61313;48.396;10.008;2024-01-15T07:37:28;94998.13;;;0.99;63.06
8253;BME280;61313;48.396;10.008;2024-01-15T07:39:54;94996.88;;;1.13;62.95
8253;BME280;61313;48.396;10.008;2024-01-15T07:42:19;94998.59;;;1.12;62.62
8253;BME280;61313;48.396;10.008;2024-01-15T07:44:44;94996.16;;;1.08;62.55
8253;BME280;61313;48.396;10.008;2024-01-15T07:47:10;94989.75;;;1.21;62.63
8253;BME280;61313;48.396;10.008;2024-01-15T07:49:35;94997.19;;;1.02;62.96
8253;BME280;61313;48.396;10.008;2024-01-15T07:52:01;94999.69;;;1.05;62.70
8253;BME280;61313;48.396;10.008;2024-01-15T07:54:26;95002.03;;;1.13;62.07
8253;BME280;61313;48.396;10.008;2024-01-15T07:56:59;95001.94;;;1.16;62.13
8253;BME280;61313;48.396;10.008;2024-01-15T07:59:26;95002.16;;;1.08;62.21
8253;BME280;61313;48.396;10.008;2024-01-15T08:01:52;94995.19;;;1.12;61.89
8253;BME280;61313;48.396;10.008;2024-01-15T08:04:18;94992.31;;;1.21;62.28
8253;BME280;61313;48.396;10.008;2024-01-15T08:06:44;94991.53;;;1.19;61.51
8253;BME280;61313;48.396;10.008;2024-01-15T08:09:10;94987.97;;;1.23;61.80
8253;BME280;61313;48.396;10.008;2024-01-15T08:11:35;94990.69;;;1.18;61.40
8253;BME280;61313;48.396;10.008;2024-01-15T08:14:01;94987.47;;;1.38;60.36
8253;BME280;61313;48.396;10.008;2024-01-15T08:16:26;94986.88;;;1.30;60.82
8253;BME280;61313;48.396;10.008;2024-01-15T08:18:52;94992.00;;;1.32;60.75
8253;BME280;61313;48.396;10.008;2024-01-15T08:21:18;94990.69;;;1.18;61.33
8253;BME280;61313;48.396;10.008;2024-01-15T08:23:44;94995.41;;;1.32;60.00
8253;BME280;61313;48.396;10.008;2024-01-15T08:26:10;94998.91;;;1.31;59.82
8253;BME280;61313;48.396;10.008;2024-01-15T08:28:36;94991.25;;;1.28;59.42
8253;BME280;61313;48.396;10.008;2024-01-15T08:31:01;94996.91;;;1.39;58.12
8253;BME280;61313;48.396;10.008;2024-01-15T08:33:28;94984.06;;;1.38;58.34
8253;BME280;61313;48.396;10.008;2024-01-15T08:35:53;94987.34;;;1.43;57.93
8253;BME280;61313;48.396;10.008;2024-01-15T08:38:19;94985.00;;;1.63;57.42
8253;BME280;61313;48.396;10.008;2024-01-15T08:40:44;94985.28;;;1.54;56.90
8253;BME280;61313;48.396;10.008;2024-01-15T08:43:10;94982.72;;;1.53;57.15
8253;BME280;61313;48.396;10.008;2024-01-15T08:45:35;94987.78;;;1.56;56.68
8253;BME280;61313;48.396;10.008;2024-01-15T08:48:00;94988.59;;;1.58;56.33
8253;BME280;61313;48.396;10.008;2024-01-15T08:50:26;94999.59;;;1.64;56.26
8253;BME280;61313;48.396;10.008;2024-01-15T08:52:52;94992.09;;;1.83;55.34
8253;BME280;61313;48.396;10.008;2024-01-15T08:55:17;94995.06;;;1.71;55.06
8253;BME280;61313;48.396;10.008;2024-01-15T08:57:42;94990.59;;;1.76;55.52
8253;BME280;61313;48.396;10.008;2024-01-15T09:00:08;94975.13;;;1.75;55.39
8253;BME280;61313;48.396;10.008;2024-01-15T09:02:34;94970.53;;;1.84;55.31
8253;BME280;61313;48.396;10.008;2024-01-15T09:05:01;94964.59;;;1.81;55.02
8253;BME280;61313;48.396;10.008;2024-01-15T09:07:26;94971.44;;;1.82;55.33
8253;BME280;61313;48.396;10.008;2024-01-15T09:09:52;94963.72;;;2.07;54.56
8253;BME280;61313;48.396;10.008;2024-01-15T09:12:18;94950.22;;;1.99;54.73
8253;BME280;61313;48.396;10.008;2024-01-15T09:14:46;94938.94;;;4.47;49.08
8253;BME280;61313;48.396;10.008;2024-01-15T09:17:11;94933.88;;;5.57;45.42
8253;BME280;61313;48.396;10.008;2024-01-15T09:19:37;94930.19;;;7.64;40.84
8253;BME280;61313;48.396;10.008;2024-01-15T09:22:04;94921.09;;;8.90;37.71
8253;BME280;61313;48.396;10.008;2024-01-15T09:24:29;94930.06;;;9.71;36.14
8253;BME280;61313;48.396;10.008;2024-01-15T09:26:54;94928.31;;;10.24;34.86
8253;BME280;61313;48.396;10.008;2024-01-15T09:29:20;94933.22;;;9.20;35.52
8253;BME280;61313;48.396;10.008;2024-01-15T09:31:45;94942.72;;;7.57;39.11
8253;BME280;61313;48.396;10.008;2024-01-15T09:34:11;94944.50;;;6.43;41.44
8253;BME280;61313;48.396;10.008;2024-01-15T09:36:40;94932.56;;;5.67;42.71
8253;BME280;61313;48.396;10.008;2024-01-15T09:39:07;94949.03;;;5.49;43.81
8253;BME280;61313;48.396;10.008;2024-01-15T09:41:37;94947.22;;;5.68;43.51
8253;BME280;61313;48.396;10.008;2024-01-15T09:44:03;94937.34;;;6.11;42.87
8253;BME280;61313;48.396;10.008;2024-01-15T09:46:31;94944.16;;;5.60;44.21
8253;BME280;61313;48.396;10.008;2024-01-15T09:48:56;94943.34;;;5.41;43.91
8253;BME280;61313;48.396;10.008;2024-01-15T09:51:24;94935.75;;;5.17;44.32
8253;BME280;61313;48.396;10.008;2024-01-15T09:53:50;94943.75;;;4.94;44.91
8253;BME280;61313;48.396;10.008;2024-01-15T09:56:16;94930.84;;;4.73;45.54
8253;BME280;61313;48.396;10.008;2024-01-15T09:58:42;94932.13;;;4.63;46.16
8253;BME280;61313;48.396;10.008;2024-01-15T10:01:08;94925.03;;;4.48;46.79
8253;BME280;61313;48.396;10.008;2024-01-15T10:03:34;94929.78;;;4.38;46.39
8253;BME280;61313;48.396;10.008;2024-01-15T10:05:59;94937.91;;;4.30;47.08
8253;BME280;61313;48.396;10.008;2024-01-15T10:08:25;94930.38;;;4.03;48.17
8253;BME280;61313;48.396;10.008;2024-01-15T10:10:51;94927.38;;;4.13;47.34
8253;BME280;61313;48.396;10.008;2024-01-15T10:13:17;94924.66;;;3.95;48.59
8253;BME280;61313;48.396;10.008;2024-01-15T10:15:45;94933.94;;;3.80;47.86
8253;BME280;61313;48.396;10.008;2024-01-15T10:18:12;94925.84;;;3.88;47.61
8253;BME280;61313;48.396;10.008;2024-01-15T10:20:37;94921.81;;;3.81;47.84
8253;BME280;61313;48.396;10.008;2024-01-15T10:23:03;94922.78;;;3.78;48.12
8253;BME280;61313;48.396;10.008;2024-01-15T10:25:29;94907.84;;;3.84;47.69
8253;BME280;61313;48.396;10.008;2024-01-15T10:28:03;94910.69;;;3.77;48.19
8253;BME280;61313;48.396;10.008;2024-01-15T10:30:29;94904.84;;;3.72;47.72
8253;BME280;61313;48.396;10.008;2024-01-15T10:32:59;94905.97;;;3.67;47.75
8253;BME280;61313;48.396;10.008;2024-01-15T10:37:54;94892.84;;;3.70;47.74
8253;BME280;61313;48.396;10.008;2024-01-15T10:40:20;94892.41;;;3.60;47.99
8253;BME280;61313;48.396;10.008;2024-01-15T10:42:45;94875.53;;;3.70;47.71
8253;BME280;61313;48.396;10.008;2024-01-15T10:45:13;94871.19;;;3.71;47.50
8253;BME280;61313;48.396;10.008;2024-01-15T10:47:38;94878.25;;;3.67;46.97
8253;BME280;61313;48.396;10.008;2024-01-15T10:50:05;94882.94;;;3.79;46.70
8253;BME280;61313;48.396;10.008;2024-01-15T10:52:33;94876.56;;;3.87;46.51
8253;BME280;61313;48.396;10.008;2024-01-15T10:54:59;94862.09;;;4.01;45.27
8253;BME280;61313;48.396;10.008;2024-01-15T10:57:26;94864.44;;;4.08;45.61
8253;BME280;61313;48.396;10.008;2024-01-15T10:59:52;94856.50;;;4.11;44.94
8253;BME280;61313;48.396;10.008;2024-01-15T11:02:18;94855.03;;;4.26;45.39
8253;BME280;61313;48.396;10.008;2024-01-15T11:04:43;94866.38;;;4.23;45.42
8253;BME280;61313;48.396;10.008;2024-01-15T11:07:10;94868.56;;;4.32;45.38
8253;BME280;61313;48.396;10.008;2024-01-15T11:09:37;94860.91;;;4.29;44.94
8253;BME280;61313;48.396;10.008;2024-01-15T11:12:13;94866.44;;;4.21;44.87
8253;BME280;61313;48.396;10.008;2024-01-15T11:14:39;94860.09;;;4.08;44.87
8253;BME280;61313;48.396;10.008;2024-01-15T11:17:04;94857.84;;;4.00;45.75
8253;BME280;61313;48.396;10.008;2024-01-15T11:22:09;94868.53;;;3.93;45.25
8253;BME280;61313;48.396;10.008;2024-01-15T11:24:39;94865.22;;;3.89;45.23
8253;BME280;61313;48.396;10.008;2024-01-15T11:27:05;94862.88;;;4.03;44.40
8253;BME280;61313;48.396;10.008;2024-01-15T11:29:33;94862.72;;;3.88;44.58
8253;BME280;61313;48.396;10.008;2024-01-15T11:32:02;94856.84;;;3.82;45.07
8253;BME280;61313;48.396;10.008;2024-01-15T11:34:55;94853.81;;;3.73;45.98
8253;BME280;61313;48.396;10.008;2024-01-15T11:37:25;94854.66;;;3.73;45.20
8253;BME280;61313;48.396;10.008;2024-01-15T11:40:02;94852.63;;;4.00;44.94
8253;BME280;61313;48.396;10.008;2024-01-15T11:42:29;94847.00;;;3.91;45.11
8253;BME280;61313;48.396;10.008;2024-01-15T11:44:55;94853.69;;;3.76;45.46
8253;BME280;61313;48.396;10.008;2024-01-15T11:50:30;94847.34;;;3.83;45.38
8253;BME280;61313;48.396;10.008;2024-01-15T11:53:00;94842.19;;;3.81;46.11
8253;BME280;61313;48.396;10.008;2024-01-15T11:55:38;94843.88;;;3.82;45.93
8253;BME280;61313;48.396;10.008;2024-01-15T11:58:09;94853.16;;;3.88;45.78
8253;BME280;61313;48.396;10.008;2024-01-15T12:00:42;94849.84;;;3.85;45.75
8253;BME280;61313;48.396;10.008;2024-01-15T12:03:08;94853.41;;;3.82;46.51
8253;BME280;61313;48.396;10.008;2024-01-15T12:05:37;94850.81;;;3.82;46.38
8253;BME280;61313;48.396;10.008;2024-01-15T12:08:02;94844.88;;;3.59;47.04
8253;BME280;61313;48.396;10.008;2024-01-15T12:10:28;94842.91;;;3.65;46.71
8253;BME280;61313;48.396;10.008;2024-01-15T12:15:26;94837.59;;;3.68;47.10
8253;BME280;61313;48.396;10.008;2024-01-15T12:17:58;94836.69;;;3.69;47.27
8253;BME280;61313;48.396;10.008;2024-01-15T12:20:28;94821.69;;;3.75;47.52
8253;BME280;61313;48.396;10.008;2024-01-15T12:22:54;94829.31;;;3.59;48.37
8253;BME280;61313;48.396;10.008;2024-01-15T12:25:23;94816.78;;;3.69;48.12
8253;BME280;61313;48.396;10.008;2024-01-15T12:27:49;94814.06;;;3.72;48.06
8253;BME280;61313;48.396;10.008;2024-01-15T12:30:15;94818.00;;;3.81;48.72
8253;BME280;61313;48.396;10.008;2024-01-15T12:32:41;94820.72;;;3.78;48.26
8253;BME280;61313;48.396;10.008;2024-01-15T12:35:07;94831.97;;;3.78;48.08
8253;BME280;61313;48.396;10.008;2024-01-15T12:37:35;94839.66;;;3.80;48.30
8253;BME280;61313;48.396;10.008;2024-01-15T12:40:01;94839.91;;;3.94;47.73
8253;BME280;61313;48.396;10.008;2024-01-15T12:42:28;94831.00;;;3.81;47.93
8253;BME280;61313;48.396;10.008;2024-01-15T12:44:56;94830.50;;;3.92;47.97
8253;BME280;61313;48.396;10.008;2024-01-15T12:47:21;94831.63;;;3.86;48.44
8253;BME280;61313;48.396;10.008;2024-01-15T12:49:51;94833.50;;;3.82;49.24
8253;BME280;61313;48.396;10.008;2024-01-15T12:52:19;94832.31;;;3.90;49.41
8253;BME280;61313;48.396;10.008;2024-01-15T12:54:44;94825.78;;;3.81;49.41
8253;BME280;61313;48.396;10.008;2024-01-15T12:57:10;94820.59;;;3.81;48.90
8253;BME280;61313;48.396;10.008;2024-01-15T12:59:35;94827.03;;;3.72;49.25
8253;BME280;61313;48.396;10.008;2024-01-15T13:02:00;94822.66;;;3.73;49.52
8253;BME280;61313;48.396;10.008;2024-01-15T13:04:26;94823.13;;;3.82;48.78
8253;BME280;61313;48.396;10.008;2024-01-15T13:06:52;94819.81;;;3.79;48.21
8253;BME280;61313;48.396;10.008;2024-01-15T13:09:18;94818.47;;;3.70;49.13
8253;BME280;61313;48.396;10.008;2024-01-15T13:11:47;94820.66;;;3.79;49.03
8253;BME280;61313;48.396;10.008;2024-01-15T13:14:12;94821.88;;;3.71;48.49